createdAt,value
2022-10-21T00:00:47.488Z,1010.90
2022-10-21T00:01:47.485Z,1010.91
2022-10-21T00:02:47.549Z,1010.88
2022-10-21T00:03:47.472Z,1010.87
2022-10-21T00:04:47.450Z,1010.91
2022-10-21T00:05:47.474Z,1010.84
2022-10-21T00:06:47.456Z,1010.86
2022-10-21T00:07:47.436Z,1010.79
2022-10-21T00:08:47.466Z,1010.76
2022-10-21T00:09:47.405Z,1010.72
2022-10-21T00:10:47.396Z,1010.76
2022-10-21T00:11:47.390Z,1010.72
2022-10-21T00:12:47.417Z,1010.71
2022-10-21T00:13:47.374Z,1010.70
2022-10-21T00:14:47.350Z,1010.67
2022-10-21T00:15:47.342Z,1010.68
2022-10-21T00:16:47.337Z,1010.66
2022-10-21T00:17:47.330Z,1010.67
2022-10-21T00:18:47.305Z,1010.69
2022-10-21T00:19:47.306Z,1010.68
2022-10-21T00:20:47.292Z,1010.67
2022-10-21T00:21:47.292Z,1010.68
2022-10-21T00:22:47.263Z,1010.65
2022-10-21T00:23:47.273Z,1010.62
2022-10-21T00:24:47.243Z,1010.67
2022-10-21T00:25:47.244Z,1010.70
2022-10-21T00:26:47.243Z,1010.68
2022-10-21T00:27:47.216Z,1010.65
2022-10-21T00:28:47.212Z,1010.60
2022-10-21T00:29:47.201Z,1010.60
2022-10-21T00:30:47.182Z,1010.59
2022-10-21T00:31:47.197Z,1010.60
2022-10-21T00:32:47.166Z,1010.69
2022-10-21T00:33:47.158Z,1010.77
2022-10-21T00:34:47.148Z,1010.76
2022-10-21T00:35:47.195Z,1010.82
2022-10-21T00:36:47.120Z,1010.93
2022-10-21T00:37:47.126Z,1011.05
2022-10-21T00:38:47.100Z,1011.02
2022-10-21T00:39:47.095Z,1010.94
2022-10-21T00:40:47.102Z,1010.93
2022-10-21T00:41:47.124Z,1011.01
2022-10-21T00:42:47.226Z,1010.98
2022-10-21T00:43:47.056Z,1010.99
2022-10-21T00:44:47.037Z,1010.94
2022-10-21T00:45:47.056Z,1010.96
2022-10-21T00:46:47.036Z,1010.97
2022-10-21T00:48:46.998Z,1010.91
2022-10-21T00:49:46.992Z,1010.94
2022-10-21T00:50:46.977Z,1010.91
2022-10-21T00:51:46.984Z,1010.86
2022-10-21T00:52:46.958Z,1010.87
2022-10-21T00:53:46.953Z,1010.80
2022-10-21T00:54:46.936Z,1010.79
2022-10-21T00:55:46.937Z,1010.77
2022-10-21T00:56:46.969Z,1010.84
2022-10-21T00:57:46.908Z,1010.88
2022-10-21T00:58:46.903Z,1010.83
2022-10-21T00:59:46.892Z,1010.84
2022-10-21T01:00:46.897Z,1010.85
2022-10-21T01:01:46.880Z,1010.84
2022-10-21T01:02:46.860Z,1010.86
2022-10-21T01:03:46.850Z,1010.81
2022-10-21T01:04:46.842Z,1010.80
2022-10-21T01:05:46.866Z,1010.80
2022-10-21T01:06:46.828Z,1010.83
2022-10-21T01:07:47.349Z,1010.80
2022-10-21T01:08:46.852Z,1010.75
2022-10-21T01:09:46.788Z,1010.75
2022-10-21T01:10:46.781Z,1010.72
2022-10-21T01:11:46.784Z,1010.69
2022-10-21T01:12:46.749Z,1010.67
2022-10-21T01:13:46.750Z,1010.62
2022-10-21T01:14:46.731Z,1010.58
2022-10-21T01:15:46.738Z,1010.58
2022-10-21T01:16:48.228Z,1010.57
2022-10-21T01:17:47.182Z,1010.53
2022-10-21T01:18:46.690Z,1010.51
2022-10-21T01:19:46.683Z,1010.50
2022-10-21T01:20:46.667Z,1010.48
2022-10-21T01:21:46.672Z,1010.49
2022-10-21T01:22:46.660Z,1010.49
2022-10-21T01:23:46.647Z,1010.51
2022-10-21T01:24:46.641Z,1010.52
2022-10-21T01:25:46.634Z,1010.55
2022-10-21T01:26:46.619Z,1010.51
2022-10-21T01:27:46.617Z,1010.50
2022-10-21T01:28:46.591Z,1010.47
2022-10-21T01:29:46.584Z,1010.44
2022-10-21T01:30:46.566Z,1010.39
2022-10-21T01:31:46.573Z,1010.38
2022-10-21T01:32:46.554Z,1010.38
2022-10-21T01:33:46.540Z,1010.39
2022-10-21T01:34:46.527Z,1010.31
2022-10-21T01:35:46.528Z,1010.28
2022-10-21T01:36:46.513Z,1010.27
2022-10-21T01:37:46.552Z,1010.21
2022-10-21T01:38:46.486Z,1010.25
2022-10-21T01:39:46.503Z,1010.23
2022-10-21T01:40:46.465Z,1010.17
2022-10-21T01:41:46.474Z,1010.16
2022-10-21T01:42:46.455Z,1010.12
2022-10-21T01:43:46.443Z,1010.08
2022-10-21T01:44:46.417Z,1010.08
2022-10-21T01:45:46.429Z,1010.10
2022-10-21T01:46:46.415Z,1010.11
2022-10-21T01:47:46.399Z,1010.14
2022-10-21T01:48:46.384Z,1010.12
2022-10-21T01:49:46.374Z,1010.09
2022-10-21T01:50:46.360Z,1010.06
2022-10-21T01:51:46.378Z,1010.09
2022-10-21T01:52:46.342Z,1010.16
2022-10-21T01:53:46.335Z,1010.12
2022-10-21T01:54:46.327Z,1010.06
2022-10-21T01:55:46.311Z,1010.12
2022-10-21T01:56:46.326Z,1010.11
2022-10-21T01:57:46.289Z,1010.05
2022-10-21T01:58:46.281Z,1010.01
2022-10-21T01:59:46.280Z,1010.04
2022-10-21T02:00:46.335Z,1010.03
2022-10-21T02:01:46.260Z,1009.96
2022-10-21T02:02:46.246Z,1009.95
2022-10-21T02:03:46.242Z,1009.91
2022-10-21T02:04:46.218Z,1009.87
2022-10-21T02:05:46.210Z,1009.85
2022-10-21T02:06:46.209Z,1009.83
2022-10-21T02:07:46.188Z,1009.81
2022-10-21T02:08:46.233Z,1009.81
2022-10-21T02:09:46.170Z,1009.82
2022-10-21T02:10:46.155Z,1009.82
2022-10-21T02:11:46.169Z,1009.80
2022-10-21T02:12:46.146Z,1009.77
2022-10-21T02:13:46.128Z,1009.76
2022-10-21T02:14:46.112Z,1009.73
2022-10-21T02:15:46.110Z,1009.71
2022-10-21T02:16:46.124Z,1009.68
2022-10-21T02:17:46.088Z,1009.66
2022-10-21T02:18:46.069Z,1009.67
2022-10-21T02:19:46.067Z,1009.67
2022-10-21T02:20:46.053Z,1009.66
2022-10-21T02:21:46.061Z,1009.66
2022-10-21T02:22:46.037Z,1009.65
2022-10-21T02:23:46.069Z,1009.64
2022-10-21T02:24:46.007Z,1009.59
2022-10-21T02:25:46.005Z,1009.57
2022-10-21T02:26:46.010Z,1009.55
2022-10-21T02:27:45.995Z,1009.53
2022-10-21T02:28:45.985Z,1009.48
2022-10-21T02:29:45.968Z,1009.45
2022-10-21T02:30:45.946Z,1009.43
2022-10-21T02:31:45.951Z,1009.39
2022-10-21T02:32:45.925Z,1009.37
2022-10-21T02:33:45.920Z,1009.36
2022-10-21T02:34:45.914Z,1009.32
2022-10-21T02:35:45.905Z,1009.30
2022-10-21T02:36:45.907Z,1009.30
2022-10-21T02:37:45.888Z,1009.32
2022-10-21T02:38:45.869Z,1009.34
2022-10-21T02:39:45.864Z,1009.32
2022-10-21T02:40:45.849Z,1009.32
2022-10-21T02:41:45.862Z,1009.34
2022-10-21T02:42:45.822Z,1009.38
2022-10-21T02:43:45.817Z,1009.39
2022-10-21T02:44:45.810Z,1009.40
2022-10-21T02:45:45.799Z,1009.42
2022-10-21T02:46:45.795Z,1009.44
2022-10-21T02:47:45.778Z,1009.45
2022-10-21T02:48:45.763Z,1009.45
2022-10-21T02:49:45.764Z,1009.44
2022-10-21T02:50:45.744Z,1009.42
2022-10-21T02:51:45.754Z,1009.41
2022-10-21T02:52:45.721Z,1009.38
2022-10-21T02:53:45.719Z,1009.37
2022-10-21T02:54:45.711Z,1009.36
2022-10-21T02:55:45.702Z,1009.37
2022-10-21T02:56:45.721Z,1009.36
2022-10-21T02:57:45.677Z,1009.32
2022-10-21T02:58:45.657Z,1009.30
2022-10-21T02:59:45.664Z,1009.28
2022-10-21T03:00:45.655Z,1009.24
2022-10-21T03:01:45.698Z,1009.21
2022-10-21T03:02:45.627Z,1009.18
2022-10-21T03:03:45.618Z,1009.13
2022-10-21T03:04:45.604Z,1009.09
2022-10-21T03:05:45.604Z,1009.05
2022-10-21T03:06:45.578Z,1008.99
2022-10-21T03:07:45.567Z,1008.94
2022-10-21T03:08:45.598Z,1008.89
2022-10-21T03:09:45.570Z,1008.87
2022-10-21T03:10:48.043Z,1008.86
2022-10-21T03:11:45.540Z,1008.86
2022-10-21T03:12:45.514Z,1008.87
2022-10-21T03:13:45.509Z,1008.86
2022-10-21T03:14:45.495Z,1008.84
2022-10-21T03:15:45.508Z,1008.86
2022-10-21T03:16:45.474Z,1008.87
2022-10-21T03:17:45.472Z,1008.89
2022-10-21T03:18:45.507Z,1008.93
2022-10-21T03:19:45.446Z,1008.97
2022-10-21T03:20:45.448Z,1008.96
2022-10-21T03:21:45.426Z,1008.96
2022-10-21T03:22:45.424Z,1008.96
2022-10-21T03:23:45.407Z,1008.94
2022-10-21T03:24:45.405Z,1008.95
2022-10-21T03:25:45.409Z,1008.96
2022-10-21T03:26:45.377Z,1008.98
2022-10-21T03:27:45.358Z,1009.01
2022-10-21T03:28:45.356Z,1009.02
2022-10-21T03:29:45.343Z,1009.05
2022-10-21T03:30:45.332Z,1009.07
2022-10-21T03:31:45.331Z,1009.10
2022-10-21T03:32:45.315Z,1009.15
2022-10-21T03:33:45.304Z,1009.18
2022-10-21T03:34:45.293Z,1009.15
2022-10-21T03:35:45.275Z,1009.12
2022-10-21T03:36:45.289Z,1009.11
2022-10-21T03:37:45.279Z,1009.07
2022-10-21T03:38:45.252Z,1009.05
2022-10-21T03:39:45.238Z,1009.02
2022-10-21T03:40:45.235Z,1008.97
2022-10-21T03:41:45.234Z,1008.92
2022-10-21T03:42:45.209Z,1008.90
2022-10-21T03:43:45.211Z,1008.87
2022-10-21T03:44:45.190Z,1008.82
2022-10-21T03:45:45.177Z,1008.83
2022-10-21T03:46:45.199Z,1008.85
2022-10-21T03:47:45.175Z,1008.85
2022-10-21T03:48:45.169Z,1008.91
2022-10-21T03:49:45.137Z,1008.99
2022-10-21T03:50:45.140Z,1009.02
2022-10-21T03:51:45.113Z,1008.99
2022-10-21T03:52:45.111Z,1008.98
2022-10-21T03:53:45.108Z,1008.99
2022-10-21T03:54:45.093Z,1009.02
2022-10-21T03:55:45.084Z,1009.06
2022-10-21T03:56:45.070Z,1009.12
2022-10-21T03:57:45.058Z,1009.16
2022-10-21T03:58:45.047Z,1009.17
2022-10-21T03:59:45.044Z,1009.17
2022-10-21T04:00:45.033Z,1009.16
2022-10-21T04:01:45.063Z,1009.14
2022-10-21T04:02:45.006Z,1009.13
2022-10-21T04:03:44.991Z,1009.13
2022-10-21T04:04:44.987Z,1009.15
2022-10-21T04:05:44.981Z,1009.16
2022-10-21T04:06:44.962Z,1009.13
2022-10-21T04:07:49.282Z,1009.10
2022-10-21T04:08:45.028Z,1009.08
2022-10-21T04:09:44.932Z,1009.00
2022-10-21T04:10:44.978Z,1008.96
2022-10-21T04:11:44.912Z,1008.96
2022-10-21T04:12:44.903Z,1008.93
2022-10-21T04:13:44.893Z,1008.90
2022-10-21T04:14:44.879Z,1008.90
2022-10-21T04:15:44.895Z,1008.87
2022-10-21T04:16:46.087Z,1008.83
2022-10-21T04:17:44.849Z,1008.80
2022-10-21T04:18:44.837Z,1008.79
2022-10-21T04:19:44.842Z,1008.77
2022-10-21T04:20:44.817Z,1008.73
2022-10-21T04:21:44.802Z,1008.68
2022-10-21T04:22:44.800Z,1008.62
2022-10-21T04:23:44.790Z,1008.56
2022-10-21T04:24:44.810Z,1008.51
2022-10-21T04:25:44.764Z,1008.48
2022-10-21T04:26:44.759Z,1008.47
2022-10-21T04:27:44.756Z,1008.50
2022-10-21T04:28:44.741Z,1008.51
2022-10-21T04:29:44.768Z,1008.51
2022-10-21T04:30:44.713Z,1008.49
2022-10-21T04:31:44.839Z,1008.46
2022-10-21T04:32:44.692Z,1008.43
2022-10-21T04:33:44.678Z,1008.39
2022-10-21T04:34:44.685Z,1008.34
2022-10-21T04:35:44.664Z,1008.31
2022-10-21T04:36:44.655Z,1008.32
2022-10-21T04:37:44.652Z,1008.31
2022-10-21T04:38:44.641Z,1008.28
2022-10-21T04:39:44.635Z,1008.25
2022-10-21T04:40:44.710Z,1008.23
2022-10-21T04:41:44.612Z,1008.21
2022-10-21T04:42:44.594Z,1008.18
2022-10-21T04:43:44.578Z,1008.18
2022-10-21T04:44:44.582Z,1008.18
2022-10-21T04:45:44.559Z,1008.20
2022-10-21T04:46:44.555Z,1008.22
2022-10-21T04:47:44.534Z,1008.20
2022-10-21T04:48:44.529Z,1008.21
2022-10-21T04:50:54.904Z,1008.19
2022-10-21T04:51:55.893Z,1008.15
2022-10-21T04:52:55.884Z,1008.14
2022-10-21T04:53:55.868Z,1008.16
2022-10-21T04:54:55.871Z,1008.14
2022-10-21T04:55:55.852Z,1008.11
2022-10-21T04:56:56.768Z,1008.08
2022-10-21T04:57:55.844Z,1008.05
2022-10-21T04:58:55.907Z,1008.04
2022-10-21T04:59:55.891Z,1008.05
2022-10-21T05:00:55.978Z,1008.07
2022-10-21T05:01:56.069Z,1008.03
2022-10-21T05:02:55.883Z,1007.98
2022-10-21T05:03:55.887Z,1007.93
2022-10-21T05:04:55.895Z,1007.93
2022-10-21T05:05:55.795Z,1007.90
2022-10-21T05:06:55.804Z,1007.89
2022-10-21T05:07:56.010Z,1007.88
2022-10-21T05:08:55.834Z,1007.88
2022-10-21T05:09:55.702Z,1007.86
2022-10-21T05:10:55.696Z,1007.83
2022-10-21T05:11:55.684Z,1007.81
2022-10-21T05:12:55.671Z,1007.78
2022-10-21T05:13:55.768Z,1007.74
2022-10-21T05:14:55.663Z,1007.73
2022-10-21T05:15:55.627Z,1007.69
2022-10-21T05:16:55.669Z,1007.66
2022-10-21T05:17:55.572Z,1007.65
2022-10-21T05:18:55.555Z,1007.64
2022-10-21T05:19:55.608Z,1007.60
2022-10-21T05:20:55.550Z,1007.57
2022-10-21T05:21:55.562Z,1007.59
2022-10-21T05:22:55.508Z,1007.64
2022-10-21T05:23:55.515Z,1007.67
2022-10-21T05:24:55.496Z,1007.70
2022-10-21T05:25:55.473Z,1007.72
2022-10-21T05:26:55.500Z,1007.75
2022-10-21T05:27:55.469Z,1007.76
2022-10-21T05:28:55.455Z,1007.76
2022-10-21T05:29:55.428Z,1007.72
2022-10-21T05:30:55.427Z,1007.73
2022-10-21T05:31:55.431Z,1007.73
2022-10-21T05:32:55.420Z,1007.74
2022-10-21T05:33:55.416Z,1007.72
2022-10-21T05:34:55.384Z,1007.70
2022-10-21T05:35:55.363Z,1007.69
2022-10-21T05:36:55.360Z,1007.71
2022-10-21T05:37:55.354Z,1007.71
2022-10-21T05:38:55.354Z,1007.71
2022-10-21T05:39:55.348Z,1007.72
2022-10-21T05:40:55.320Z,1007.73
2022-10-21T05:41:55.301Z,1007.71
2022-10-21T05:42:55.302Z,1007.69
2022-10-21T05:43:55.287Z,1007.68
2022-10-21T05:44:55.278Z,1007.66
2022-10-21T05:45:55.260Z,1007.65
2022-10-21T05:46:55.262Z,1007.62
2022-10-21T05:47:55.238Z,1007.61
2022-10-21T05:48:55.248Z,1007.61
2022-10-21T05:49:55.216Z,1007.61
2022-10-21T05:50:55.220Z,1007.61
2022-10-21T05:51:55.193Z,1007.61
2022-10-21T05:52:55.740Z,1007.57
2022-10-21T05:53:55.189Z,1007.55
2022-10-21T05:54:55.174Z,1007.51
2022-10-21T05:55:55.169Z,1007.53
2022-10-21T05:56:55.189Z,1007.52
2022-10-21T05:57:56.858Z,1007.55
2022-10-21T05:58:55.176Z,1007.56
2022-10-21T05:59:55.111Z,1007.55
2022-10-21T06:00:55.158Z,1007.57
2022-10-21T06:01:55.101Z,1007.57
2022-10-21T06:02:55.106Z,1007.57
2022-10-21T06:03:55.079Z,1007.59
2022-10-21T06:04:55.082Z,1007.55
2022-10-21T06:05:55.053Z,1007.55
2022-10-21T06:06:55.144Z,1007.54
2022-10-21T06:07:55.026Z,1007.55
2022-10-21T06:08:55.070Z,1007.54
2022-10-21T06:09:55.329Z,1007.52
2022-10-21T06:10:55.006Z,1007.51
2022-10-21T06:11:54.985Z,1007.52
2022-10-21T06:12:54.976Z,1007.55
2022-10-21T06:13:54.978Z,1007.56
2022-10-21T06:14:54.966Z,1007.54
2022-10-21T06:15:55.027Z,1007.53
2022-10-21T06:16:54.937Z,1007.49
2022-10-21T06:17:54.924Z,1007.51
2022-10-21T06:18:54.948Z,1007.50
2022-10-21T06:19:54.898Z,1007.48
2022-10-21T06:20:54.894Z,1007.50
2022-10-21T06:21:54.900Z,1007.49
2022-10-21T06:22:54.867Z,1007.49
2022-10-21T06:23:54.865Z,1007.52
2022-10-21T06:24:54.849Z,1007.54
2022-10-21T06:25:54.833Z,1007.58
2022-10-21T06:26:54.829Z,1007.63
2022-10-21T06:27:54.811Z,1007.67
2022-10-21T06:28:54.857Z,1007.67
2022-10-21T06:29:54.818Z,1007.62
2022-10-21T06:30:54.811Z,1007.62
2022-10-21T06:35:28.432Z,1007.63
2022-10-21T06:36:29.333Z,1007.64
2022-10-21T06:37:29.333Z,1007.61
2022-10-21T06:38:29.305Z,1007.60
2022-10-21T06:39:29.302Z,1007.61
2022-10-21T06:40:29.293Z,1007.62
2022-10-21T06:41:29.269Z,1007.61
2022-10-21T06:42:29.266Z,1007.62
2022-10-21T06:43:29.256Z,1007.62
2022-10-21T06:44:29.253Z,1007.63
2022-10-21T06:45:29.229Z,1007.64
2022-10-21T06:46:29.221Z,1007.66
2022-10-21T06:47:29.208Z,1007.67
2022-10-21T06:48:29.203Z,1007.69
2022-10-21T06:49:29.198Z,1007.71
2022-10-21T06:50:29.184Z,1007.74
2022-10-21T06:51:29.168Z,1007.70
2022-10-21T06:52:29.162Z,1007.69
2022-10-21T06:53:29.167Z,1007.69
2022-10-21T06:54:29.160Z,1007.68
2022-10-21T06:55:29.128Z,1007.67
2022-10-21T06:56:29.133Z,1007.70
2022-10-21T06:57:29.103Z,1007.70
2022-10-21T06:58:29.100Z,1007.69
2022-10-21T06:59:29.099Z,1007.66
2022-10-21T07:01:40.938Z,1007.60
2022-10-21T07:02:29.079Z,1007.61
2022-10-21T07:03:29.065Z,1007.63
2022-10-21T07:04:29.087Z,1007.64
2022-10-21T07:05:29.019Z,1007.60
2022-10-21T07:06:29.133Z,1007.62
2022-10-21T07:07:29.027Z,1007.64
2022-10-21T07:08:40.273Z,1007.66
2022-10-21T07:09:29.121Z,1007.67
2022-10-21T07:10:28.981Z,1007.63
2022-10-21T07:11:28.968Z,1007.62
2022-10-21T07:12:28.950Z,1007.62
2022-10-21T07:13:28.964Z,1007.60
2022-10-21T07:14:28.947Z,1007.60
2022-10-21T07:15:28.914Z,1007.62
2022-10-21T07:16:28.936Z,1007.66
2022-10-21T07:17:28.898Z,1007.68
2022-10-21T07:18:28.885Z,1007.73
2022-10-21T07:19:28.880Z,1007.75
2022-10-21T07:20:28.870Z,1007.73
2022-10-21T07:21:28.854Z,1007.76
2022-10-21T07:22:28.849Z,1007.78
2022-10-21T07:23:28.828Z,1007.81
2022-10-21T07:24:28.855Z,1007.83
2022-10-21T07:25:28.858Z,1007.84
2022-10-21T07:26:28.810Z,1007.84
2022-10-21T07:27:28.810Z,1007.84
2022-10-21T07:28:28.790Z,1007.86
2022-10-21T07:29:28.781Z,1007.86
2022-10-21T07:30:28.788Z,1007.84
2022-10-21T07:31:28.748Z,1007.83
2022-10-21T07:32:28.742Z,1007.84
2022-10-21T07:33:28.734Z,1007.85
2022-10-21T07:34:28.747Z,1007.84
2022-10-21T07:35:28.703Z,1007.82
2022-10-21T07:36:28.701Z,1007.83
2022-10-21T07:37:28.686Z,1007.88
2022-10-21T07:38:28.683Z,1007.89
2022-10-21T07:39:28.678Z,1007.88
2022-10-21T07:40:28.663Z,1007.84
2022-10-21T07:41:28.644Z,1007.82
2022-10-21T07:42:28.632Z,1007.78
2022-10-21T07:43:28.635Z,1007.76
2022-10-21T07:44:28.619Z,1007.75
2022-10-21T07:45:28.599Z,1007.75
2022-10-21T07:46:28.591Z,1007.75
2022-10-21T07:47:28.601Z,1007.74
2022-10-21T07:48:28.570Z,1007.76
2022-10-21T07:49:28.574Z,1007.78
2022-10-21T07:50:28.558Z,1007.77
2022-10-21T07:51:30.316Z,1007.76
2022-10-21T07:52:28.533Z,1007.74
2022-10-21T07:53:28.514Z,1007.73
2022-10-21T07:54:28.522Z,1007.72
2022-10-21T07:55:28.510Z,1007.72
2022-10-21T07:56:28.489Z,1007.71
2022-10-21T07:57:28.475Z,1007.68
2022-10-21T07:58:28.472Z,1007.67
2022-10-21T07:59:28.472Z,1007.67
2022-10-21T08:00:28.461Z,1007.68
2022-10-21T08:01:28.557Z,1007.70
2022-10-21T08:02:28.427Z,1007.71
2022-10-21T08:03:28.406Z,1007.66
2022-10-21T08:04:28.418Z,1007.65
2022-10-21T08:05:28.408Z,1007.62
2022-10-21T08:06:28.387Z,1007.58
2022-10-21T08:07:28.365Z,1007.55
2022-10-21T08:08:28.457Z,1007.56
2022-10-21T08:09:28.351Z,1007.55
2022-10-21T08:10:28.381Z,1007.55
2022-10-21T08:11:28.322Z,1007.59
2022-10-21T08:12:28.332Z,1007.66
2022-10-21T08:13:28.307Z,1007.68
2022-10-21T08:14:28.319Z,1007.68
2022-10-21T08:15:28.279Z,1007.70
2022-10-21T08:16:28.285Z,1007.71
2022-10-21T08:17:28.259Z,1007.75
2022-10-21T08:18:28.255Z,1007.73
2022-10-21T08:19:28.255Z,1007.69
2022-10-21T08:20:28.355Z,1007.69
2022-10-21T08:21:28.220Z,1007.68
2022-10-21T08:22:28.308Z,1007.68
2022-10-21T08:23:28.257Z,1007.69
2022-10-21T08:24:28.212Z,1007.67
2022-10-21T08:25:28.198Z,1007.67
2022-10-21T08:26:28.179Z,1007.68
2022-10-21T08:27:28.154Z,1007.68
2022-10-21T08:28:28.149Z,1007.66
2022-10-21T08:29:28.149Z,1007.64
2022-10-21T08:30:28.144Z,1007.60
2022-10-21T08:31:28.110Z,1007.56
2022-10-21T08:32:28.107Z,1007.56
2022-10-21T08:33:28.101Z,1007.55
2022-10-21T08:34:28.099Z,1007.56
2022-10-21T08:35:28.073Z,1007.55
2022-10-21T08:36:28.068Z,1007.57
2022-10-21T08:37:28.065Z,1007.58
2022-10-21T08:38:28.072Z,1007.52
2022-10-21T08:39:28.047Z,1007.47
2022-10-21T08:40:28.037Z,1007.42
2022-10-21T08:41:28.015Z,1007.39
2022-10-21T08:42:28.002Z,1007.40
2022-10-21T08:43:27.979Z,1007.43
2022-10-21T08:44:27.982Z,1007.45
2022-10-21T08:45:27.965Z,1007.44
2022-10-21T08:46:27.968Z,1007.43
2022-10-21T08:47:27.950Z,1007.42
2022-10-21T08:48:27.946Z,1007.41
2022-10-21T08:49:29.978Z,1007.41
2022-10-21T08:50:27.914Z,1007.36
2022-10-21T08:51:27.900Z,1007.33
2022-10-21T08:52:27.891Z,1007.29
2022-10-21T08:53:27.914Z,1007.31
2022-10-21T08:54:27.864Z,1007.31
2022-10-21T08:55:27.859Z,1007.32
2022-10-21T08:56:27.866Z,1007.36
2022-10-21T08:57:27.837Z,1007.39
2022-10-21T08:58:28.025Z,1007.38
2022-10-21T08:59:27.881Z,1007.35
2022-10-21T09:00:27.810Z,1007.33
2022-10-21T09:01:27.820Z,1007.32
2022-10-21T09:02:27.792Z,1007.31
2022-10-21T09:03:27.891Z,1007.31
2022-10-21T09:04:27.800Z,1007.35
2022-10-21T09:05:27.800Z,1007.34
2022-10-21T09:06:27.742Z,1007.33
2022-10-21T09:07:27.741Z,1007.34
2022-10-21T09:08:27.721Z,1007.34
2022-10-21T09:09:27.717Z,1007.32
2022-10-21T09:10:27.694Z,1007.30
2022-10-21T09:11:27.691Z,1007.24
2022-10-21T09:12:27.681Z,1007.22
2022-10-21T09:13:27.679Z,1007.20
2022-10-21T09:14:27.730Z,1007.18
2022-10-21T09:15:27.656Z,1007.16
2022-10-21T09:16:27.647Z,1007.11
2022-10-21T09:17:27.625Z,1007.09
2022-10-21T09:18:27.624Z,1007.05
2022-10-21T09:19:27.603Z,1007.03
2022-10-21T09:20:27.593Z,1007.05
2022-10-21T09:21:27.586Z,1007.08
2022-10-21T09:22:35.145Z,1007.10
2022-10-21T09:23:27.621Z,1007.09
2022-10-21T09:24:27.553Z,1007.04
2022-10-21T09:25:27.559Z,1007.01
2022-10-21T09:26:30.188Z,1006.99
2022-10-21T09:27:37.850Z,1006.99
2022-10-21T09:28:27.515Z,1006.99
2022-10-21T09:29:27.502Z,1006.97
2022-10-21T09:30:27.481Z,1006.98
2022-10-21T09:31:27.475Z,1006.97
2022-10-21T09:32:27.523Z,1006.95
2022-10-21T09:33:27.467Z,1006.94
2022-10-21T09:34:27.446Z,1006.96
2022-10-21T09:35:27.455Z,1006.97
2022-10-21T09:36:27.425Z,1007.00
2022-10-21T09:37:30.484Z,1007.00
2022-10-21T09:38:27.429Z,1007.00
2022-10-21T09:39:27.388Z,1007.02
2022-10-21T09:40:27.377Z,1006.99
2022-10-21T09:41:27.374Z,1006.97
2022-10-21T09:42:46.408Z,1006.96
2022-10-21T09:43:27.432Z,1006.96
2022-10-21T09:44:27.330Z,1006.96
2022-10-21T09:45:27.328Z,1006.94
2022-10-21T09:46:27.315Z,1006.93
2022-10-21T09:47:27.311Z,1006.97
2022-10-21T09:48:27.309Z,1006.96
2022-10-21T09:49:54.693Z,1006.93
2022-10-21T09:50:27.321Z,1006.91
2022-10-21T09:51:27.275Z,1006.88
2022-10-21T09:52:27.267Z,1006.93
2022-10-21T09:53:27.256Z,1006.99
2022-10-21T09:54:27.231Z,1007.04
2022-10-21T09:55:27.222Z,1007.07
2022-10-21T09:56:27.210Z,1007.07
2022-10-21T09:57:27.200Z,1007.10
2022-10-21T09:58:27.213Z,1007.10
2022-10-21T09:59:32.717Z,1007.08
2022-10-21T10:00:27.175Z,1007.02
2022-10-21T10:01:27.153Z,1007.02
2022-10-21T10:02:27.184Z,1007.01
2022-10-21T10:03:27.147Z,1007.02
2022-10-21T10:04:27.126Z,1007.04
2022-10-21T10:05:27.136Z,1007.03
2022-10-21T10:06:27.105Z,1007.02
2022-10-21T10:07:27.091Z,1007.00
2022-10-21T10:08:27.101Z,1007.00
2022-10-21T10:09:27.081Z,1006.99
2022-10-21T10:10:27.053Z,1007.03
2022-10-21T10:11:27.084Z,1007.02
2022-10-21T10:12:27.045Z,1007.00
2022-10-21T10:13:27.041Z,1006.98
2022-10-21T10:14:27.022Z,1006.95
2022-10-21T10:15:30.669Z,1006.92
2022-10-21T10:16:26.998Z,1006.92
2022-10-21T10:17:26.996Z,1006.92
2022-10-21T10:18:26.984Z,1006.90
2022-10-21T10:19:27.036Z,1006.86
2022-10-21T10:20:26.955Z,1006.83
2022-10-21T10:21:26.947Z,1006.85
2022-10-21T10:22:26.942Z,1006.80
2022-10-21T10:23:26.950Z,1006.80
2022-10-21T10:24:26.930Z,1006.76
2022-10-21T10:25:26.907Z,1006.74
2022-10-21T10:26:26.885Z,1006.73
2022-10-21T10:27:26.882Z,1006.74
2022-10-21T10:28:26.884Z,1006.71
2022-10-21T10:29:26.859Z,1006.69
2022-10-21T10:30:26.843Z,1006.67
2022-10-21T10:31:26.835Z,1006.64
2022-10-21T10:32:26.825Z,1006.66
2022-10-21T10:33:26.831Z,1006.68
2022-10-21T10:34:26.848Z,1006.68
2022-10-21T10:35:26.789Z,1006.67
2022-10-21T10:36:26.788Z,1006.67
2022-10-21T10:37:26.799Z,1006.69
2022-10-21T10:38:26.773Z,1006.71
2022-10-21T10:39:26.762Z,1006.70
2022-10-21T10:40:26.739Z,1006.70
2022-10-21T10:41:26.759Z,1006.68
2022-10-21T10:42:26.716Z,1006.66
2022-10-21T10:43:26.726Z,1006.65
2022-10-21T10:44:26.705Z,1006.64
2022-10-21T10:45:26.686Z,1006.62
2022-10-21T10:46:26.679Z,1006.59
2022-10-21T10:47:26.686Z,1006.56
2022-10-21T10:48:26.760Z,1006.54
2022-10-21T10:49:26.653Z,1006.48
2022-10-21T10:50:32.670Z,1006.45
2022-10-21T10:51:27.342Z,1006.42
2022-10-21T10:52:26.605Z,1006.43
2022-10-21T10:53:28.241Z,1006.43
2022-10-21T10:54:26.593Z,1006.41
2022-10-21T10:55:26.589Z,1006.40
2022-10-21T10:56:26.574Z,1006.37
2022-10-21T10:57:34.319Z,1006.35
2022-10-21T10:58:28.019Z,1006.34
2022-10-21T10:59:26.546Z,1006.33
2022-10-21T11:00:26.531Z,1006.31
2022-10-21T11:01:26.567Z,1006.31
2022-10-21T11:02:26.520Z,1006.27
2022-10-21T11:03:26.524Z,1006.26
2022-10-21T11:04:26.504Z,1006.26
2022-10-21T11:05:26.474Z,1006.25
2022-10-21T11:06:26.457Z,1006.24
2022-10-21T11:07:26.484Z,1006.24
2022-10-21T11:08:27.991Z,1006.21
2022-10-21T11:09:27.502Z,1006.19
2022-10-21T11:10:26.456Z,1006.17
2022-10-21T11:11:26.408Z,1006.17
2022-10-21T11:12:26.404Z,1006.17
2022-10-21T11:13:26.413Z,1006.18
2022-10-21T11:14:26.388Z,1006.16
2022-10-21T11:15:26.366Z,1006.16
2022-10-21T11:16:26.353Z,1006.14
2022-10-21T11:17:26.346Z,1006.14
2022-10-21T11:18:26.347Z,1006.12
2022-10-21T11:19:26.341Z,1006.16
2022-10-21T11:20:26.379Z,1006.15
2022-10-21T11:21:26.318Z,1006.20
2022-10-21T11:22:26.314Z,1006.23
2022-10-21T11:23:26.366Z,1006.26
2022-10-21T11:24:26.270Z,1006.25
2022-10-21T11:25:26.269Z,1006.23
2022-10-21T11:26:26.251Z,1006.19
2022-10-21T11:27:26.243Z,1006.15
2022-10-21T11:28:26.232Z,1006.14
2022-10-21T11:29:26.243Z,1006.17
2022-10-21T11:30:26.205Z,1006.17
2022-10-21T11:31:26.227Z,1006.17
2022-10-21T11:32:26.192Z,1006.16
2022-10-21T11:33:26.213Z,1006.14
2022-10-21T11:34:26.183Z,1006.12
2022-10-21T11:35:26.166Z,1006.10
2022-10-21T11:36:26.218Z,1006.10
2022-10-21T11:37:26.131Z,1006.10
2022-10-21T11:38:26.167Z,1006.11
2022-10-21T11:39:26.108Z,1006.08
2022-10-21T11:40:26.110Z,1006.07
2022-10-21T11:41:28.050Z,1006.05
2022-10-21T11:42:26.078Z,1006.05
2022-10-21T11:43:26.086Z,1006.04
2022-10-21T11:44:29.303Z,1006.06
2022-10-21T11:45:26.049Z,1006.04
2022-10-21T11:46:26.075Z,1006.03
2022-10-21T11:47:26.043Z,1006.03
2022-10-21T11:48:26.032Z,1006.05
2022-10-21T11:49:26.012Z,1006.04
2022-10-21T11:50:25.993Z,1006.03
2022-10-21T11:51:26.049Z,1006.04
2022-10-21T11:52:25.967Z,1006.03
2022-10-21T11:53:25.985Z,1006.05
2022-10-21T11:54:25.965Z,1006.05
2022-10-21T11:55:25.954Z,1006.04
2022-10-21T11:56:25.930Z,1006.04
2022-10-21T11:57:25.925Z,1006.01
2022-10-21T11:58:25.928Z,1006.02
2022-10-21T12:00:25.881Z,1006.03
2022-10-21T12:01:25.882Z,1006.04
2022-10-21T12:02:25.895Z,1006.05
2022-10-21T12:03:25.857Z,1006.05
2022-10-21T12:04:25.847Z,1006.08
2022-10-21T12:05:25.842Z,1006.09
2022-10-21T12:06:25.814Z,1006.10
2022-10-21T12:07:25.839Z,1006.12
2022-10-21T12:09:24.795Z,1006.10
2022-10-21T12:10:25.791Z,1006.10
2022-10-21T12:11:25.766Z,1006.10
2022-10-21T12:12:25.772Z,1006.11
2022-10-21T12:13:25.745Z,1006.09
2022-10-21T12:14:30.916Z,1006.08